sensor_id;sensor_type;location;lat;lon;timestamp;temperature;humidity
21627;DHT22;10975;47.872;12.972;2022-12-07T00:01:06;4.30;99.90
21627;DHT22;10975;47.872;12.972;2022-12-07T00:03:33;4.20;99.90
21627;DHT22;10975;47.872;12.972;2022-12-07T00:06:01;4.20;99.90
21627;DHT22;10975;47.872;12.972;2022-12-07T00:08:28;4.20;99.90
21627;DHT22;10975;47.872;12.972;2022-12-07T00:10:55;4.20;99.90
21627;DHT22;10975;47.872;12.972;2022-12-07T00:13:22;4.30;99.90
21627;DHT22;10975;47.872;12.972;2022-12-07T00:15:51;4.30;99.90
21627;DHT22;10975;47.872;12.972;2022-12-07T00:18:18;4.30;99.90
21627;DHT22;10975;47.872;12.972;2022-12-07T00:20:47;4.30;99.90
21627;DHT22;10975;47.872;12.972;2022-12-07T00:23:15;4.20;99.90
21627;DHT22;10975;47.872;12.972;2022-12-07T00:25:51;4.20;99.90
21627;DHT22;10975;47.872;12.972;2022-12-07T00:28:29;4.20;99.90
21627;DHT22;10975;47.872;12.972;2022-12-07T00:31:11;4.20;99.90
21627;DHT22;10975;47.872;12.972;2022-12-07T00:33:38;4.20;99.90
21627;DHT22;10975;47.872;12.972;2022-12-07T00:36:07;4.20;99.90
21627;DHT22;10975;47.872;12.972;2022-12-07T00:38:34;4.20;99.90
21627;DHT22;10975;47.872;12.972;2022-12-07T00:41:07;4.20;99.90
21627;DHT22;10975;47.872;12.972;2022-12-07T00:43:51;4.30;99.90
21627;DHT22;10975;47.872;12.972;2022-12-07T00:46:22;4.20;99.90
21627;DHT22;10975;47.872;12.972;2022-12-07T00:48:49;4.30;99.90
21627;DHT22;10975;47.872;12.972;2022-12-07T00:51:22;4.30;99.90
21627;DHT22;10975;47.872;12.972;2022-12-07T00:53:49;4.30;99.90
21627;DHT22;10975;47.872;12.972;2022-12-07T00:56:25;4.30;99.90
21627;DHT22;10975;47.872;12.972;2022-12-07T00:58:56;4.20;99.90
21627;DHT22;10975;47.872;12.972;2022-12-07T01:01:24;4.20;99.90
21627;DHT22;10975;47.872;12.972;2022-12-07T01:03:52;4.30;99.90
21627;DHT22;10975;47.872;12.972;2022-12-07T01:06:19;4.30;99.90
21627;DHT22;10975;47.872;12.972;2022-12-07T01:08:46;4.30;99.90
21627;DHT22;10975;47.872;12.972;2022-12-07T01:11:14;4.30;99.90
21627;DHT22;10975;47.872;12.972;2022-12-07T01:13:41;4.30;99.90
21627;DHT22;10975;47.872;12.972;2022-12-07T01:16:09;4.30;99.90
21627;DHT22;10975;47.872;12.972;2022-12-07T01:18:37;4.20;99.90
21627;DHT22;10975;47.872;12.972;2022-12-07T01:21:14;4.30;99.90
21627;DHT22;10975;47.872;12.972;2022-12-07T01:23:41;4.30;99.90
21627;DHT22;10975;47.872;12.972;2022-12-07T01:26:13;4.30;99.90
21627;DHT22;10975;47.872;12.972;2022-12-07T01:28:40;4.30;99.90
21627;DHT22;10975;47.872;12.972;2022-12-07T01:31:08;4.30;99.90
21627;DHT22;10975;47.872;12.972;2022-12-07T01:33:38;4.20;99.90
21627;DHT22;10975;47.872;12.972;2022-12-07T01:36:06;4.20;99.90
21627;DHT22;10975;47.872;12.972;2022-12-07T01:38:33;4.30;99.90
21627;DHT22;10975;47.872;12.972;2022-12-07T01:41:00;4.20;99.90
21627;DHT22;10975;47.872;12.972;2022-12-07T01:43:28;4.20;99.90
21627;DHT22;10975;47.872;12.972;2022-12-07T01:45:55;4.20;99.90
21627;DHT22;10975;47.872;12.972;2022-12-07T01:48:30;4.20;99.90
21627;DHT22;10975;47.872;12.972;2022-12-07T01:51:00;4.20;99.90
21627;DHT22;10975;47.872;12.972;2022-12-07T01:53:28;4.20;99.90
21627;DHT22;10975;47.872;12.972;2022-12-07T01:55:56;4.30;99.90
21627;DHT22;10975;47.872;12.972;2022-12-07T01:58:23;4.30;99.90
21627;DHT22;10975;47.872;12.972;2022-12-07T02:00:50;4.30;99.90
21627;DHT22;10975;47.872;12.972;2022-12-07T02:03:18;4.30;99.90
21627;DHT22;10975;47.872;12.972;2022-12-07T02:05:46;4.40;99.90
21627;DHT22;10975;47.872;12.972;2022-12-07T02:08:14;4.50;99.90
21627;DHT22;10975;47.872;12.972;2022-12-07T02:10:41;4.40;99.90
21627;DHT22;10975;47.872;12.972;2022-12-07T02:13:10;4.40;99.90
21627;DHT22;10975;47.872;12.972;2022-12-07T02:18:09;4.30;99.90
21627;DHT22;10975;47.872;12.972;2022-12-07T02:23:16;4.30;99.90
21627;DHT22;10975;47.872;12.972;2022-12-07T02:28:35;4.30;99.90
21627;DHT22;10975;47.872;12.972;2022-12-07T02:31:14;4.30;99.90
21627;DHT22;10975;47.872;12.972;2022-12-07T02:33:52;4.30;99.90
21627;DHT22;10975;47.872;12.972;2022-12-07T02:36:28;4.30;99.90
21627;DHT22;10975;47.872;12.972;2022-12-07T02:39:05;4.20;99.90
21627;DHT22;10975;47.872;12.972;2022-12-07T02:41:34;4.30;99.90
21627;DHT22;10975;47.872;12.972;2022-12-07T02:44:03;4.30;99.90
21627;DHT22;10975;47.872;12.972;2022-12-07T02:46:42;4.30;99.90
21627;DHT22;10975;47.872;12.972;2022-12-07T02:49:10;4.30;99.90
21627;DHT22;10975;47.872;12.972;2022-12-07T02:51:41;4.30;99.90
21627;DHT22;10975;47.872;12.972;2022-12-07T02:54:15;4.30;99.90
21627;DHT22;10975;47.872;12.972;2022-12-07T02:56:52;4.30;99.90
21627;DHT22;10975;47.872;12.972;2022-12-07T02:59:33;4.30;99.90
21627;DHT22;10975;47.872;12.972;2022-12-07T03:02:23;4.10;99.90
21627;DHT22;10975;47.872;12.972;2022-12-07T03:07:38;4.10;99.90
21627;DHT22;10975;47.872;12.972;2022-12-07T03:15:13;4.10;99.90
21627;DHT22;10975;47.872;12.972;2022-12-07T03:17:41;4.10;99.90
21627;DHT22;10975;47.872;12.972;2022-12-07T03:20:09;4.20;99.90
21627;DHT22;10975;47.872;12.972;2022-12-07T03:22:37;4.10;99.90
21627;DHT22;10975;47.872;12.972;2022-12-07T03:25:06;4.10;99.90
21627;DHT22;10975;47.872;12.972;2022-12-07T03:30:42;4.10;99.90
21627;DHT22;10975;47.872;12.972;2022-12-07T03:33:12;4.10;99.90
21627;DHT22;10975;47.872;12.972;2022-12-07T03:35:40;4.10;99.90
21627;DHT22;10975;47.872;12.972;2022-12-07T03:41:16;4.00;99.90
21627;DHT22;10975;47.872;12.972;2022-12-07T03:43:43;4.00;99.90
21627;DHT22;10975;47.872;12.972;2022-12-07T03:48:53;4.10;99.90
21627;DHT22;10975;47.872;12.972;2022-12-07T03:51:22;4.10;99.90
21627;DHT22;10975;47.872;12.972;2022-12-07T03:53:59;4.10;99.90
21627;DHT22;10975;47.872;12.972;2022-12-07T03:56:27;4.10;99.90
21627;DHT22;10975;47.872;12.972;2022-12-07T03:58:55;4.10;99.90
21627;DHT22;10975;47.872;12.972;2022-12-07T04:01:22;4.10;99.90
21627;DHT22;10975;47.872;12.972;2022-12-07T04:03:49;4.00;99.90
21627;DHT22;10975;47.872;12.972;2022-12-07T04:06:16;4.10;99.90
21627;DHT22;10975;47.872;12.972;2022-12-07T04:08:42;4.10;99.90
21627;DHT22;10975;47.872;12.972;2022-12-07T04:11:09;4.00;99.90
21627;DHT22;10975;47.872;12.972;2022-12-07T04:13:36;4.00;99.90
21627;DHT22;10975;47.872;12.972;2022-12-07T04:16:22;4.00;99.90
21627;DHT22;10975;47.872;12.972;2022-12-07T04:18:49;4.00;99.90
21627;DHT22;10975;47.872;12.972;2022-12-07T04:21:16;4.00;99.90
21627;DHT22;10975;47.872;12.972;2022-12-07T04:23:42;4.00;99.90
21627;DHT22;10975;47.872;12.972;2022-12-07T04:26:09;4.00;99.90
21627;DHT22;10975;47.872;12.972;2022-12-07T04:28:36;4.10;99.90
21627;DHT22;10975;47.872;12.972;2022-12-07T04:31:02;4.10;99.90
21627;DHT22;10975;47.872;12.972;2022-12-07T04:33:29;4.00;99.90
21627;DHT22;10975;47.872;12.972;2022-12-07T04:35:56;4.00;99.90
21627;DHT22;10975;47.872;12.972;2022-12-07T04:38:22;4.00;99.90
21627;DHT22;10975;47.872;12.972;2022-12-07T04:40:49;4.00;99.90
21627;DHT22;10975;47.872;12.972;2022-12-07T04:43:16;4.00;99.90
21627;DHT22;10975;47.872;12.972;2022-12-07T04:45:49;4.00;99.90
21627;DHT22;10975;47.872;12.972;2022-12-07T04:48:17;4.00;99.90
21627;DHT22;10975;47.872;12.972;2022-12-07T04:50:43;4.00;99.90
21627;DHT22;10975;47.872;12.972;2022-12-07T04:53:12;4.00;99.90
21627;DHT22;10975;47.872;12.972;2022-12-07T04:55:38;4.00;99.90
21627;DHT22;10975;47.872;12.972;2022-12-07T04:58:05;4.00;99.90
21627;DHT22;10975;47.872;12.972;2022-12-07T05:00:32;4.00;99.90
21627;DHT22;10975;47.872;12.972;2022-12-07T05:02:59;4.00;99.90
21627;DHT22;10975;47.872;12.972;2022-12-07T05:05:25;3.90;99.90
21627;DHT22;10975;47.872;12.972;2022-12-07T05:07:52;4.00;99.90
21627;DHT22;10975;47.872;12.972;2022-12-07T05:10:19;3.90;99.90
21627;DHT22;10975;47.872;12.972;2022-12-07T05:12:45;3.90;99.90
21627;DHT22;10975;47.872;12.972;2022-12-07T05:15:13;3.90;99.90
21627;DHT22;10975;47.872;12.972;2022-12-07T05:17:39;3.90;99.90
21627;DHT22;10975;47.872;12.972;2022-12-07T05:20:06;3.90;99.90
21627;DHT22;10975;47.872;12.972;2022-12-07T05:22:34;3.80;99.90
21627;DHT22;10975;47.872;12.972;2022-12-07T05:25:01;3.80;99.90
21627;DHT22;10975;47.872;12.972;2022-12-07T05:27:27;3.80;99.90
21627;DHT22;10975;47.872;12.972;2022-12-07T05:29:54;3.80;99.90
21627;DHT22;10975;47.872;12.972;2022-12-07T05:32:21;3.80;99.90
21627;DHT22;10975;47.872;12.972;2022-12-07T05:34:49;3.80;99.90
21627;DHT22;10975;47.872;12.972;2022-12-07T05:37:16;3.80;99.90
21627;DHT22;10975;47.872;12.972;2022-12-07T05:39:43;3.80;99.90
21627;DHT22;10975;47.872;12.972;2022-12-07T05:42:10;3.80;99.90
21627;DHT22;10975;47.872;12.972;2022-12-07T05:44:41;3.80;99.90
21627;DHT22;10975;47.872;12.972;2022-12-07T05:47:08;3.80;99.90
21627;DHT22;10975;47.872;12.972;2022-12-07T05:49:35;3.80;99.90
21627;DHT22;10975;47.872;12.972;2022-12-07T05:52:02;3.80;99.90
21627;DHT22;10975;47.872;12.972;2022-12-07T05:54:29;3.80;99.90
21627;DHT22;10975;47.872;12.972;2022-12-07T05:56:56;3.80;99.90
21627;DHT22;10975;47.872;12.972;2022-12-07T05:59:23;3.80;99.90
21627;DHT22;10975;47.872;12.972;2022-12-07T06:01:51;3.80;99.90
21627;DHT22;10975;47.872;12.972;2022-12-07T06:04:18;3.80;99.90
21627;DHT22;10975;47.872;12.972;2022-12-07T06:06:45;3.80;99.90
21627;DHT22;10975;47.872;12.972;2022-12-07T06:09:12;3.80;99.90
21627;DHT22;10975;47.872;12.972;2022-12-07T06:11:39;3.80;99.90
21627;DHT22;10975;47.872;12.972;2022-12-07T06:14:24;3.80;99.90
21627;DHT22;10975;47.872;12.972;2022-12-07T06:16:51;3.80;99.90
21627;DHT22;10975;47.872;12.972;2022-12-07T06:19:18;3.80;99.90
21627;DHT22;10975;47.872;12.972;2022-12-07T06:21:45;3.80;99.90
21627;DHT22;10975;47.872;12.972;2022-12-07T06:24:11;3.80;99.90
21627;DHT22;10975;47.872;12.972;2022-12-07T06:26:39;3.80;99.90
21627;DHT22;10975;47.872;12.972;2022-12-07T06:29:05;3.80;99.90
21627;DHT22;10975;47.872;12.972;2022-12-07T06:31:32;3.80;99.90
21627;DHT22;10975;47.872;12.972;2022-12-07T06:34:00;3.80;99.90
21627;DHT22;10975;47.872;12.972;2022-12-07T06:36:26;3.80;99.90
21627;DHT22;10975;47.872;12.972;2022-12-07T06:38:53;3.80;99.90
21627;DHT22;10975;47.872;12.972;2022-12-07T06:41:20;3.70;99.90
21627;DHT22;10975;47.872;12.972;2022-12-07T06:43:47;3.80;99.90
21627;DHT22;10975;47.872;12.972;2022-12-07T06:46:21;3.70;99.90
21627;DHT22;10975;47.872;12.972;2022-12-07T06:48:48;3.70;99.90
21627;DHT22;10975;47.872;12.972;2022-12-07T06:51:15;3.70;99.90
21627;DHT22;10975;47.872;12.972;2022-12-07T06:53:41;3.70;99.90
21627;DHT22;10975;47.872;12.972;2022-12-07T06:56:08;3.70;99.90
21627;DHT22;10975;47.872;12.972;2022-12-07T06:58:35;3.70;99.90
21627;DHT22;10975;47.872;12.972;2022-12-07T07:01:02;3.70;99.90
21627;DHT22;10975;47.872;12.972;2022-12-07T07:03:29;3.70;99.90
21627;DHT22;10975;47.872;12.972;2022-12-07T07:05:56;3.70;99.90
21627;DHT22;10975;47.872;12.972;2022-12-07T07:08:22;3.70;99.90
21627;DHT22;10975;47.872;12.972;2022-12-07T07:10:50;3.70;99.90
21627;DHT22;10975;47.872;12.972;2022-12-07T07:13:17;3.80;99.90
21627;DHT22;10975;47.872;12.972;2022-12-07T07:15:44;3.80;99.90
21627;DHT22;10975;47.872;12.972;2022-12-07T07:18:10;3.80;99.90
21627;DHT22;10975;47.872;12.972;2022-12-07T07:20:37;3.80;99.90
21627;DHT22;10975;47.872;12.972;2022-12-07T07:23:04;3.80;99.90
21627;DHT22;10975;47.872;12.972;2022-12-07T07:25:31;3.80;99.90
21627;DHT22;10975;47.872;12.972;2022-12-07T07:27:58;3.80;99.90
21627;DHT22;10975;47.872;12.972;2022-12-07T07:30:25;3.80;99.90
21627;DHT22;10975;47.872;12.972;2022-12-07T07:32:55;3.80;99.90
21627;DHT22;10975;47.872;12.972;2022-12-07T07:35:22;3.80;99.90
21627;DHT22;10975;47.872;12.972;2022-12-07T07:37:49;3.80;99.90
21627;DHT22;10975;47.872;12.972;2022-12-07T07:40:15;3.80;99.90
21627;DHT22;10975;47.872;12.972;2022-12-07T07:42:42;3.90;99.90
21627;DHT22;10975;47.872;12.972;2022-12-07T07:45:09;3.90;99.90
21627;DHT22;10975;47.872;12.972;2022-12-07T07:47:36;3.90;99.90
21627;DHT22;10975;47.872;12.972;2022-12-07T07:50:02;3.90;99.90
21627;DHT22;10975;47.872;12.972;2022-12-07T07:52:30;3.90;99.90
21627;DHT22;10975;47.872;12.972;2022-12-07T07:54:57;3.90;99.90
21627;DHT22;10975;47.872;12.972;2022-12-07T07:57:23;3.90;99.90
21627;DHT22;10975;47.872;12.972;2022-12-07T07:59:50;3.90;99.90
21627;DHT22;10975;47.872;12.972;2022-12-07T08:02:18;3.90;99.90
21627;DHT22;10975;47.872;12.972;2022-12-07T08:04:45;3.80;99.90
21627;DHT22;10975;47.872;12.972;2022-12-07T08:07:12;3.90;99.90
21627;DHT22;10975;47.872;12.972;2022-12-07T08:09:39;3.90;99.90
21627;DHT22;10975;47.872;12.972;2022-12-07T08:12:06;3.90;99.90
21627;DHT22;10975;47.872;12.972;2022-12-07T08:14:33;3.90;99.90
21627;DHT22;10975;47.872;12.972;2022-12-07T08:17:00;3.90;99.90
21627;DHT22;10975;47.872;12.972;2022-12-07T08:19:27;3.90;99.90
21627;DHT22;10975;47.872;12.972;2022-12-07T08:21:53;3.90;99.90
21627;DHT22;10975;47.872;12.972;2022-12-07T08:24:21;3.90;99.90
21627;DHT22;10975;47.872;12.972;2022-12-07T08:26:48;3.80;99.90
21627;DHT22;10975;47.872;12.972;2022-12-07T08:29:16;3.90;99.90
21627;DHT22;10975;47.872;12.972;2022-12-07T08:31:43;3.80;99.90
21627;DHT22;10975;47.872;12.972;2022-12-07T08:34:10;3.80;99.90
21627;DHT22;10975;47.872;12.972;2022-12-07T08:36:37;3.80;99.90
21627;DHT22;10975;47.872;12.972;2022-12-07T08:39:03;3.80;99.90
21627;DHT22;10975;47.872;12.972;2022-12-07T08:41:50;3.80;99.90
21627;DHT22;10975;47.872;12.972;2022-12-07T08:44:17;3.90;99.90
21627;DHT22;10975;47.872;12.972;2022-12-07T08:46:51;3.90;99.90
21627;DHT22;10975;47.872;12.972;2022-12-07T08:49:39;3.80;99.90
21627;DHT22;10975;47.872;12.972;2022-12-07T08:52:07;3.80;99.90
21627;DHT22;10975;47.872;12.972;2022-12-07T08:54:34;3.80;99.90
21627;DHT22;10975;47.872;12.972;2022-12-07T08:57:01;3.90;99.90
21627;DHT22;10975;47.872;12.972;2022-12-07T08:59:28;3.90;99.90
21627;DHT22;10975;47.872;12.972;2022-12-07T09:01:55;4.00;99.90
21627;DHT22;10975;47.872;12.972;2022-12-07T09:04:21;4.00;99.90
21627;DHT22;10975;47.872;12.972;2022-12-07T09:06:48;4.00;99.90
21627;DHT22;10975;47.872;12.972;2022-12-07T09:09:15;4.10;99.90
21627;DHT22;10975;47.872;12.972;2022-12-07T09:11:42;4.10;99.90
21627;DHT22;10975;47.872;12.972;2022-12-07T09:14:08;4.10;99.90
21627;DHT22;10975;47.872;12.972;2022-12-07T09:16:35;4.00;99.90
21627;DHT22;10975;47.872;12.972;2022-12-07T09:19:02;4.00;99.90
21627;DHT22;10975;47.872;12.972;2022-12-07T09:21:29;4.00;99.90
21627;DHT22;10975;47.872;12.972;2022-12-07T09:23:56;4.00;99.90
21627;DHT22;10975;47.872;12.972;2022-12-07T09:26:22;4.10;99.90
21627;DHT22;10975;47.872;12.972;2022-12-07T09:28:49;4.10;99.90
21627;DHT22;10975;47.872;12.972;2022-12-07T09:31:16;4.10;99.90
21627;DHT22;10975;47.872;12.972;2022-12-07T09:33:58;4.10;99.90
21627;DHT22;10975;47.872;12.972;2022-12-07T09:36:25;4.10;99.90
21627;DHT22;10975;47.872;12.972;2022-12-07T09:38:52;4.10;99.90
21627;DHT22;10975;47.872;12.972;2022-12-07T09:41:19;4.10;99.90
21627;DHT22;10975;47.872;12.972;2022-12-07T09:43:47;4.10;99.90
21627;DHT22;10975;47.872;12.972;2022-12-07T09:46:15;4.00;99.90
21627;DHT22;10975;47.872;12.972;2022-12-07T09:48:43;4.10;99.90
21627;DHT22;10975;47.872;12.972;2022-12-07T09:51:14;4.10;99.90
21627;DHT22;10975;47.872;12.972;2022-12-07T09:53:49;4.10;99.90
21627;DHT22;10975;47.872;12.972;2022-12-07T09:56:17;4.10;99.90
21627;DHT22;10975;47.872;12.972;2022-12-07T09:58:44;4.10;99.90
21627;DHT22;10975;47.872;12.972;2022-12-07T10:01:15;4.10;99.90
21627;DHT22;10975;47.872;12.972;2022-12-07T10:03:45;4.10;99.90
21627;DHT22;10975;47.872;12.972;2022-12-07T10:06:15;4.20;99.90
21627;DHT22;10975;47.872;12.972;2022-12-07T10:08:41;4.20;99.90
21627;DHT22;10975;47.872;12.972;2022-12-07T10:11:10;4.20;99.90
21627;DHT22;10975;47.872;12.972;2022-12-07T10:13:38;4.30;99.90
21627;DHT22;10975;47.872;12.972;2022-12-07T10:16:05;4.30;99.90
21627;DHT22;10975;47.872;12.972;2022-12-07T10:18:34;4.30;99.90
21627;DHT22;10975;47.872;12.972;2022-12-07T10:21:09;4.30;99.90
21627;DHT22;10975;47.872;12.972;2022-12-07T10:23:37;4.40;99.90
21627;DHT22;10975;47.872;12.972;2022-12-07T10:29:14;4.40;99.90
21627;DHT22;10975;47.872;12.972;2022-12-07T10:31:41;4.40;99.90
21627;DHT22;10975;47.872;12.972;2022-12-07T10:34:20;4.40;99.90
21627;DHT22;10975;47.872;12.972;2022-12-07T10:39:19;4.40;99.90
21627;DHT22;10975;47.872;12.972;2022-12-07T10:41:53;4.40;99.90
21627;DHT22;10975;47.872;12.972;2022-12-07T10:44:22;4.50;99.90
21627;DHT22;10975;47.872;12.972;2022-12-07T10:46:53;4.50;99.90
21627;DHT22;10975;47.872;12.972;2022-12-07T10:51:51;4.40;99.90
21627;DHT22;10975;47.872;12.972;2022-12-07T10:54:26;4.40;99.90
21627;DHT22;10975;47.872;12.972;2022-12-07T10:56:57;4.40;99.90
21627;DHT22;10975;47.872;12.972;2022-12-07T11:36:01;4.80;99.90
21627;DHT22;10975;47.872;12.972;2022-12-07T11:38:43;4.70;99.90
21627;DHT22;10975;47.872;12.972;2022-12-07T11:41:11;4.70;99.90
21627;DHT22;10975;47.872;12.972;2022-12-07T11:44:27;4.70;99.90
21627;DHT22;10975;47.872;12.972;2022-12-07T11:47:10;4.70;99.90
21627;DHT22;10975;47.872;12.972;2022-12-07T11:51:48;4.70;99.90
21627;DHT22;10975;47.872;12.972;2022-12-07T11:54:18;4.70;99.90
21627;DHT22;10975;47.872;12.972;2022-12-07T11:56:46;4.70;99.90
21627;DHT22;10975;47.872;12.972;2022-12-07T12:01:53;4.80;99.90
21627;DHT22;10975;47.872;12.972;2022-12-07T12:06:49;4.80;99.90
21627;DHT22;10975;47.872;12.972;2022-12-07T12:12:10;4.90;99.90
21627;DHT22;10975;47.872;12.972;2022-12-07T12:20:23;4.90;99.90
21627;DHT22;10975;47.872;12.972;2022-12-07T12:22:58;4.90;99.90
21627;DHT22;10975;47.872;12.972;2022-12-07T12:25:30;5.00;99.90
21627;DHT22;10975;47.872;12.972;2022-12-07T12:27:58;4.90;99.90
21627;DHT22;10975;47.872;12.972;2022-12-07T12:30:29;4.90;99.90
21627;DHT22;10975;47.872;12.972;2022-12-07T12:33:03;4.90;99.90
21627;DHT22;10975;47.872;12.972;2022-12-07T12:35:37;4.90;99.90
21627;DHT22;10975;47.872;12.972;2022-12-07T12:40:49;4.90;99.90
21627;DHT22;10975;47.872;12.972;2022-12-07T12:46:35;5.00;99.90
21627;DHT22;10975;47.872;12.972;2022-12-07T12:48:48;5.10;99.90
21627;DHT22;10975;47.872;12.972;2022-12-07T12:54:04;5.00;99.90
21627;DHT22;10975;47.872;12.972;2022-12-07T12:56:35;5.00;99.90
21627;DHT22;10975;47.872;12.972;2022-12-07T12:59:25;5.00;99.90
21627;DHT22;10975;47.872;12.972;2022-12-07T13:04:47;5.10;99.90
21627;DHT22;10975;47.872;12.972;2022-12-07T13:07:47;5.10;99.90
21627;DHT22;10975;47.872;12.972;2022-12-07T13:10:02;5.00;99.90
21627;DHT22;10975;47.872;12.972;2022-12-07T13:12:29;5.10;99.90
21627;DHT22;10975;47.872;12.972;2022-12-07T13:14:56;5.10;99.90
21627;DHT22;10975;47.872;12.972;2022-12-07T13:20:00;5.10;99.90
21627;DHT22;10975;47.872;12.972;2022-12-07T13:24:59;5.00;99.90
21627;DHT22;10975;47.872;12.972;2022-12-07T13:27:30;4.90;99.90
21627;DHT22;10975;47.872;12.972;2022-12-07T13:29:56;5.00;99.90
21627;DHT22;10975;47.872;12.972;2022-12-07T13:32:24;4.90;99.90
21627;DHT22;10975;47.872;12.972;2022-12-07T13:34:52;4.90;99.90
21627;DHT22;10975;47.872;12.972;2022-12-07T13:42:18;4.90;99.90
21627;DHT22;10975;47.872;12.972;2022-12-07T13:44:46;4.90;99.90
21627;DHT22;10975;47.872;12.972;2022-12-07T13:47:16;4.90;99.90
21627;DHT22;10975;47.872;12.972;2022-12-07T13:49:49;4.90;99.90
21627;DHT22;10975;47.872;12.972;2022-12-07T13:54:59;4.90;99.90
21627;DHT22;10975;47.872;12.972;2022-12-07T13:57:28;5.00;99.90
21627;DHT22;10975;47.872;12.972;2022-12-07T13:59:57;4.90;99.90
21627;DHT22;10975;47.872;12.972;2022-12-07T14:02:28;4.90;99.90
21627;DHT22;10975;47.872;12.972;2022-12-07T14:05:23;4.90;99.90
21627;DHT22;10975;47.872;12.972;2022-12-07T14:10:30;4.90;99.90
21627;DHT22;10975;47.872;12.972;2022-12-07T14:12:57;4.80;99.90
21627;DHT22;10975;47.872;12.972;2022-12-07T14:15:29;4.80;99.90
21627;DHT22;10975;47.872;12.972;2022-12-07T14:17:57;4.70;99.90
21627;DHT22;10975;47.872;12.972;2022-12-07T14:20:37;4.80;99.90
21627;DHT22;10975;47.872;12.972;2022-12-07T14:23:05;4.70;99.90
21627;DHT22;10975;47.872;12.972;2022-12-07T14:28:33;4.60;99.90
21627;DHT22;10975;47.872;12.972;2022-12-07T14:31:00;4.60;99.90
21627;DHT22;10975;47.872;12.972;2022-12-07T14:33:27;4.60;99.90
21627;DHT22;10975;47.872;12.972;2022-12-07T14:35:54;4.60;99.90
21627;DHT22;10975;47.872;12.972;2022-12-07T14:38:22;4.50;99.90
21627;DHT22;10975;47.872;12.972;2022-12-07T14:40:48;4.50;99.90
21627;DHT22;10975;47.872;12.972;2022-12-07T14:43:16;4.50;99.90
21627;DHT22;10975;47.872;12.972;2022-12-07T14:45:43;4.50;99.90
21627;DHT22;10975;47.872;12.972;2022-12-07T14:48:14;4.40;99.90
21627;DHT22;10975;47.872;12.972;2022-12-07T14:51:01;4.40;99.90
21627;DHT22;10975;47.872;12.972;2022-12-07T14:53:48;4.40;99.90
21627;DHT22;10975;47.872;12.972;2022-12-07T14:56:23;4.40;99.90
21627;DHT22;10975;47.872;12.972;2022-12-07T14:59:05;4.40;99.90
21627;DHT22;10975;47.872;12.972;2022-12-07T15:01:31;4.40;99.90
21627;DHT22;10975;47.872;12.972;2022-12-07T15:03:58;4.30;99.90
21627;DHT22;10975;47.872;12.972;2022-12-07T15:06:25;4.30;99.90
21627;DHT22;10975;47.872;12.972;2022-12-07T15:08:51;4.30;99.90
21627;DHT22;10975;47.872;12.972;2022-12-07T15:11:18;4.30;99.90
21627;DHT22;10975;47.872;12.972;2022-12-07T15:13:45;4.30;99.90
21627;DHT22;10975;47.872;12.972;2022-12-07T15:16:30;4.30;99.90
21627;DHT22;10975;47.872;12.972;2022-12-07T15:19:18;4.20;99.90
21627;DHT22;10975;47.872;12.972;2022-12-07T15:21:54;4.20;99.90
21627;DHT22;10975;47.872;12.972;2022-12-07T15:24:21;4.20;99.90
21627;DHT22;10975;47.872;12.972;2022-12-07T15:26:49;4.10;99.90
21627;DHT22;10975;47.872;12.972;2022-12-07T15:29:16;4.10;99.90
21627;DHT22;10975;47.872;12.972;2022-12-07T15:31:49;4.10;99.90
21627;DHT22;10975;47.872;12.972;2022-12-07T15:34:24;4.10;99.90
21627;DHT22;10975;47.872;12.972;2022-12-07T15:36:51;4.10;99.90
21627;DHT22;10975;47.872;12.972;2022-12-07T15:39:18;4.10;99.90
21627;DHT22;10975;47.872;12.972;2022-12-07T15:41:45;4.00;99.90
21627;DHT22;10975;47.872;12.972;2022-12-07T15:44:12;4.00;99.90
21627;DHT22;10975;47.872;12.972;2022-12-07T15:46:57;4.00;99.90
21627;DHT22;10975;47.872;12.972;2022-12-07T15:49:24;4.00;99.90
21627;DHT22;10975;47.872;12.972;2022-12-07T15:51:51;4.00;99.90
21627;DHT22;10975;47.872;12.972;2022-12-07T15:54:25;4.00;99.90
21627;DHT22;10975;47.872;12.972;2022-12-07T15:56:52;4.00;99.90
21627;DHT22;10975;47.872;12.972;2022-12-07T15:59:18;3.90;99.90
21627;DHT22;10975;47.872;12.972;2022-12-07T16:01:45;3.90;99.90
21627;DHT22;10975;47.872;12.972;2022-12-07T16:04:12;3.90;99.90
21627;DHT22;10975;47.872;12.972;2022-12-07T16:06:39;3.90;99.90
21627;DHT22;10975;47.872;12.972;2022-12-07T16:09:06;3.90;99.90
21627;DHT22;10975;47.872;12.972;2022-12-07T16:11:32;3.80;99.90
21627;DHT22;10975;47.872;12.972;2022-12-07T16:13:59;3.80;99.90
21627;DHT22;10975;47.872;12.972;2022-12-07T16:16:26;3.80;99.90
21627;DHT22;10975;47.872;12.972;2022-12-07T16:18:53;3.80;99.90
21627;DHT22;10975;47.872;12.972;2022-12-07T16:21:20;3.80;99.90
21627;DHT22;10975;47.872;12.972;2022-12-07T16:23:51;3.80;99.90
21627;DHT22;10975;47.872;12.972;2022-12-07T16:26:19;3.80;99.90
21627;DHT22;10975;47.872;12.972;2022-12-07T16:28:48;3.80;99.90
21627;DHT22;10975;47.872;12.972;2022-12-07T16:31:16;3.80;99.90
21627;DHT22;10975;47.872;12.972;2022-12-07T16:33:43;3.80;99.90
21627;DHT22;10975;47.872;12.972;2022-12-07T16:36:11;3.70;99.90
21627;DHT22;10975;47.872;12.972;2022-12-07T16:38:38;3.70;99.90
21627;DHT22;10975;47.872;12.972;2022-12-07T16:41:05;3.70;99.90
21627;DHT22;10975;47.872;12.972;2022-12-07T16:43:33;3.70;99.90
21627;DHT22;10975;47.872;12.972;2022-12-07T16:46:00;3.60;99.90
21627;DHT22;10975;47.872;12.972;2022-12-07T16:48:26;3.50;99.90
21627;DHT22;10975;47.872;12.972;2022-12-07T16:50:55;3.50;99.90
21627;DHT22;10975;47.872;12.972;2022-12-07T16:53:23;3.50;99.90
21627;DHT22;10975;47.872;12.972;2022-12-07T16:55:49;3.50;99.90
21627;DHT22;10975;47.872;12.972;2022-12-07T16:58:17;3.50;99.90
21627;DHT22;10975;47.872;12.972;2022-12-07T17:00:44;3.50;99.90
21627;DHT22;10975;47.872;12.972;2022-12-07T17:03:10;3.50;99.90
21627;DHT22;10975;47.872;12.972;2022-12-07T17:05:46;3.50;99.90
21627;DHT22;10975;47.872;12.972;2022-12-07T17:08:13;3.50;99.90
21627;DHT22;10975;47.872;12.972;2022-12-07T17:10:41;3.50;99.90
21627;DHT22;10975;47.872;12.972;2022-12-07T17:13:20;3.50;99.90
21627;DHT22;10975;47.872;12.972;2022-12-07T17:16:06;3.60;99.90
21627;DHT22;10975;47.872;12.972;2022-12-07T17:18:34;3.50;99.90
21627;DHT22;10975;47.872;12.972;2022-12-07T17:21:06;3.50;99.90
21627;DHT22;10975;47.872;12.972;2022-12-07T17:23:33;3.50;99.90
21627;DHT22;10975;47.872;12.972;2022-12-07T17:26:08;3.50;99.90
21627;DHT22;10975;47.872;12.972;2022-12-07T17:28:35;3.50;99.90
21627;DHT22;10975;47.872;12.972;2022-12-07T17:31:06;3.50;99.90
21627;DHT22;10975;47.872;12.972;2022-12-07T17:33:33;3.50;99.90
21627;DHT22;10975;47.872;12.972;2022-12-07T17:36:00;3.50;99.90
21627;DHT22;10975;47.872;12.972;2022-12-07T17:38:27;3.50;99.90